createdAt,value
2018-03-26T06:41:56.499Z,270.53
2018-03-26T06:44:31.333Z,178.40
2018-03-26T06:47:00.965Z,168.60
2018-03-26T06:49:30.413Z,188.87
2018-03-26T06:51:59.612Z,203.17
2018-03-26T06:54:29.152Z,189.40
2018-03-26T06:56:59.722Z,220.53
2018-03-26T06:59:29.724Z,179.90
2018-03-26T07:01:59.465Z,185.30
2018-03-26T07:04:29.440Z,159.60
2018-03-26T07:06:58.895Z,163.20
2018-03-26T07:09:29.485Z,191.30
2018-03-26T07:11:58.768Z,185.67
2018-03-26T07:14:28.160Z,168.43
2018-03-26T07:16:59.923Z,188.13
2018-03-26T07:19:29.180Z,182.93
2018-03-26T07:22:07.591Z,190.40
2018-03-26T07:24:49.885Z,199.53
2018-03-26T07:27:19.788Z,173.00
2018-03-26T07:29:50.171Z,185.87
2018-03-26T07:32:19.655Z,208.37
2018-03-26T07:34:50.081Z,205.97
2018-03-26T07:37:19.438Z,273.73
2018-03-26T07:39:49.947Z,221.27
2018-03-26T07:42:50.906Z,233.43
2018-03-26T07:45:20.422Z,219.97
2018-03-26T07:47:49.618Z,241.57
2018-03-26T07:50:23.666Z,208.27
2018-03-26T07:52:52.914Z,247.30
2018-03-26T07:55:22.625Z,236.37
2018-03-26T07:58:00.586Z,256.17
2018-03-26T08:00:30.486Z,263.33
2018-03-26T08:03:01.029Z,277.40
2018-03-26T08:05:30.428Z,304.70
2018-03-26T08:07:59.685Z,262.77
2018-03-26T08:10:28.989Z,288.47
2018-03-26T08:12:58.244Z,293.10
2018-03-26T08:15:28.080Z,324.47
2018-03-26T08:17:57.363Z,308.73
2018-03-26T08:20:26.653Z,278.70
2018-03-26T08:22:55.783Z,276.10
2018-03-26T08:25:24.854Z,306.97
2018-03-26T08:27:54.013Z,301.63
2018-03-26T08:30:23.964Z,283.83
2018-03-26T08:32:53.374Z,294.30
2018-03-26T08:35:22.899Z,307.43
2018-03-26T08:37:52.425Z,267.63
2018-03-26T08:40:22.247Z,257.53
2018-03-26T08:42:52.780Z,272.90
2018-03-26T08:45:22.838Z,264.03
2018-03-26T08:47:52.005Z,237.07
2018-03-26T08:50:23.587Z,255.50
2018-03-26T08:52:52.899Z,231.20
2018-03-26T08:55:22.128Z,232.33
2018-03-26T08:57:52.580Z,220.10
2018-03-26T09:00:21.947Z,188.23
2018-03-26T09:02:51.267Z,206.90
2018-03-26T09:05:21.271Z,191.33
2018-03-26T09:07:50.586Z,213.50
2018-03-26T09:10:20.584Z,207.80
2018-03-26T09:12:50.156Z,187.90
2018-03-26T09:15:19.865Z,183.63
2018-03-26T09:17:50.105Z,189.73
2018-03-26T09:20:19.446Z,151.47
2018-03-26T09:22:49.826Z,143.80
2018-03-26T09:25:19.131Z,142.63
2018-03-26T09:27:49.605Z,134.20
2018-03-26T09:30:18.955Z,129.43
2018-03-26T09:32:53.920Z,106.37
2018-03-26T09:35:29.729Z,107.77
2018-03-26T09:38:07.128Z,106.77
2018-03-26T09:40:37.444Z,87.37
2018-03-26T09:43:06.546Z,92.30
2018-03-26T09:45:37.197Z,68.97
2018-03-26T09:48:06.361Z,74.67
2018-03-26T09:50:36.488Z,70.13
2018-03-26T09:53:06.876Z,71.43
2018-03-26T09:55:37.199Z,73.13
2018-03-26T09:58:13.712Z,69.30
2018-03-26T10:00:49.471Z,82.07
2018-03-26T10:03:19.294Z,58.30
2018-03-26T10:05:48.529Z,55.03
2018-03-26T10:08:18.974Z,45.37
2018-03-26T10:10:49.020Z,69.50
2018-03-26T10:13:18.426Z,44.93
2018-03-26T10:15:49.379Z,39.07
2018-03-26T10:18:18.567Z,36.50
2018-03-26T10:20:49.804Z,40.63
2018-03-26T10:23:19.369Z,36.90
2018-03-26T10:25:50.604Z,21.47
2018-03-26T10:28:20.398Z,22.77
2018-03-26T10:30:50.118Z,36.07
2018-03-26T10:33:19.693Z,40.20
2018-03-26T10:35:51.115Z,47.73
2018-03-26T10:38:20.764Z,31.83
2018-03-26T10:40:50.577Z,28.47
2018-03-26T10:43:20.596Z,27.13
2018-03-26T10:45:50.274Z,26.50
2018-03-26T10:48:19.424Z,30.23
2018-03-26T10:50:49.748Z,33.37
2018-03-26T10:56:09.965Z,25.83
2018-03-26T10:58:39.302Z,23.43
2018-03-26T11:01:09.182Z,25.13
2018-03-26T11:03:38.876Z,24.47
2018-03-26T11:06:09.419Z,17.33
2018-03-26T11:08:39.743Z,20.03
2018-03-26T11:11:09.414Z,24.00
2018-03-26T11:13:39.281Z,12.97
2018-03-26T11:16:08.614Z,17.90
2018-03-26T11:18:40.417Z,11.87
2018-03-26T11:21:10.712Z,11.80
2018-03-26T11:23:40.286Z,8.70
2018-03-26T11:26:17.823Z,11.83
2018-03-26T11:28:57.218Z,11.30
2018-03-26T11:31:27.549Z,11.40
2018-03-26T11:33:57.725Z,14.13
2018-03-26T11:36:27.303Z,18.97
2018-03-26T11:38:56.821Z,21.07
2018-03-26T11:41:26.830Z,21.60
2018-03-26T11:43:56.784Z,14.80
2018-03-26T11:46:32.794Z,36.07
2018-03-26T11:49:09.316Z,15.50
2018-03-26T11:51:48.493Z,25.03
2018-03-26T11:54:17.713Z,14.37
2018-03-26T11:56:51.758Z,17.07
2018-03-26T11:59:27.365Z,19.47
2018-03-26T12:02:04.958Z,53.70
2018-03-26T12:04:34.735Z,16.70
2018-03-26T12:07:04.311Z,18.17
2018-03-26T12:09:34.164Z,18.63
2018-03-26T12:12:03.568Z,14.53
2018-03-26T12:14:33.656Z,10.03
2018-03-26T12:17:03.263Z,12.73
2018-03-26T12:19:32.433Z,14.00
2018-03-26T12:22:02.617Z,22.13
2018-03-26T12:24:49.837Z,23.17
2018-03-26T12:27:20.034Z,12.17
2018-03-26T12:30:14.908Z,16.20
2018-03-26T12:32:53.240Z,14.50
2018-03-26T12:35:35.740Z,17.60
2018-03-26T12:38:12.103Z,22.80
2018-03-26T12:40:54.963Z,10.57
2018-03-26T12:43:25.011Z,17.53
2018-03-26T12:47:04.629Z,24.73
2018-03-26T12:49:35.230Z,12.63
2018-03-26T12:52:17.133Z,11.77
2018-03-26T12:54:51.041Z,11.27
2018-03-26T12:59:30.292Z,22.47
2018-03-26T13:02:11.163Z,18.13
2018-03-26T13:04:43.424Z,40.23
2018-03-26T13:07:15.682Z,47.27
2018-03-26T13:09:47.207Z,37.10
2018-03-26T13:12:17.292Z,16.95
2018-03-26T13:14:50.915Z,10.77
2018-03-26T13:17:23.459Z,18.60
2018-03-26T13:19:52.686Z,29.10
2018-03-26T13:22:22.255Z,22.10
2018-03-26T13:24:54.112Z,15.77
2018-03-26T13:27:24.523Z,14.73
2018-03-26T13:29:55.566Z,8.60
2018-03-26T13:32:25.347Z,12.63
2018-03-26T13:34:55.295Z,11.67
2018-03-26T13:37:25.874Z,15.80
2018-03-26T13:39:56.428Z,17.70
2018-03-26T13:42:26.546Z,17.40
2018-03-26T13:44:55.721Z,12.00
2018-03-26T13:47:25.966Z,22.40
2018-03-26T13:49:55.796Z,16.60
2018-03-26T13:52:25.662Z,9.33
2018-03-26T13:54:55.954Z,8.47
2018-03-26T13:57:26.014Z,8.90
2018-03-26T13:59:55.636Z,9.00
2018-03-26T14:02:25.194Z,26.40
2018-03-26T14:04:55.702Z,14.47
2018-03-26T14:07:26.903Z,9.23
2018-03-26T14:12:14.800Z,26.07
2018-03-26T14:17:00.093Z,31.63
2018-03-26T14:19:29.623Z,14.50
2018-03-26T14:21:58.689Z,15.60
2018-03-26T14:24:27.894Z,9.83
2018-03-26T14:26:57.897Z,8.40
2018-03-26T14:29:28.945Z,12.37
2018-03-26T14:31:59.307Z,11.43
2018-03-26T14:34:28.756Z,7.03
2018-03-26T14:36:58.231Z,8.13
2018-03-26T14:39:27.319Z,8.70
2018-03-26T14:41:56.581Z,14.00
2018-03-26T14:44:25.837Z,12.13
2018-03-26T14:46:55.872Z,14.93
2018-03-26T14:49:25.791Z,8.50
2018-03-26T14:51:55.076Z,20.13
2018-03-26T14:54:24.246Z,17.30
2018-03-26T14:56:54.067Z,9.57
2018-03-26T14:59:24.197Z,9.53
2018-03-26T15:01:55.925Z,10.17
2018-03-26T15:04:25.827Z,7.93
2018-03-26T15:06:55.014Z,8.70
2018-03-26T15:09:25.528Z,13.60
2018-03-26T15:11:55.385Z,14.90
2018-03-26T15:14:25.055Z,11.93
2018-03-26T15:16:55.315Z,11.00
2018-03-26T15:19:25.863Z,15.97
2018-03-26T15:21:56.120Z,8.47
2018-03-26T15:24:26.618Z,7.70
2018-03-26T15:27:06.105Z,15.00
2018-03-26T15:29:42.702Z,10.03
2018-03-26T15:32:13.434Z,14.07
2018-03-26T15:34:42.917Z,11.23
2018-03-26T15:37:14.208Z,15.73
2018-03-26T15:39:43.875Z,22.13
2018-03-26T15:42:14.790Z,18.97
2018-03-26T15:44:45.730Z,18.00
2018-03-26T15:47:27.673Z,17.33
2018-03-26T15:50:05.016Z,13.73
2018-03-26T15:52:34.162Z,9.87
2018-03-26T15:55:04.186Z,29.60
2018-03-26T15:57:34.306Z,74.27
2018-03-26T16:00:04.226Z,12.37
2018-03-26T16:02:39.989Z,12.00
2018-03-26T16:05:10.086Z,9.37
2018-03-26T16:07:42.690Z,15.50
2018-03-26T16:10:13.247Z,20.60
2018-03-26T16:12:43.876Z,12.40
2018-03-26T16:15:14.217Z,16.40
2018-03-26T16:17:45.594Z,11.30
2018-03-26T16:20:15.568Z,13.33
2018-03-26T16:22:45.746Z,15.60
2018-03-26T16:25:16.362Z,17.57
2018-03-26T16:27:48.726Z,10.90
2018-03-26T16:30:18.872Z,15.83
2018-03-26T16:32:51.565Z,11.23
2018-03-26T16:35:20.799Z,19.63
2018-03-26T16:37:50.417Z,10.60
2018-03-26T16:40:20.773Z,17.10
2018-03-26T16:42:53.040Z,33.23
2018-03-26T16:45:24.076Z,25.70
2018-03-26T16:47:53.470Z,29.63
2018-03-26T16:50:27.549Z,20.50
2018-03-26T16:53:03.958Z,16.43
2018-03-26T16:55:33.772Z,15.97
2018-03-26T16:58:03.541Z,13.07
2018-03-26T17:00:32.874Z,15.30
2018-03-26T17:03:03.224Z,12.17
2018-03-26T17:05:32.694Z,12.60
2018-03-26T17:08:03.648Z,13.70
2018-03-26T17:10:34.901Z,17.10
2018-03-26T17:13:10.380Z,20.80
2018-03-26T17:15:41.392Z,15.50
2018-03-26T17:18:20.231Z,17.10
2018-03-26T17:21:01.550Z,27.93
2018-03-26T17:23:31.122Z,12.70
2018-03-26T17:26:01.197Z,22.08
2018-03-26T17:28:30.567Z,18.30
2018-03-26T17:30:59.936Z,14.83
2018-03-26T17:33:30.017Z,24.00
2018-03-26T17:36:03.752Z,14.73
2018-03-26T17:38:33.365Z,29.63
2018-03-26T17:41:03.556Z,18.20
2018-03-26T17:43:33.925Z,25.83
2018-03-26T17:46:03.355Z,83.03
2018-03-26T17:48:33.597Z,15.97
2018-03-26T17:51:03.340Z,27.00
2018-03-26T17:53:32.791Z,42.27
2018-03-26T17:56:02.747Z,27.93
2018-03-26T17:58:34.540Z,21.60
2018-03-26T18:01:04.242Z,32.63
2018-03-26T18:03:35.110Z,25.67
2018-03-26T18:06:05.366Z,26.40
2018-03-26T18:08:38.181Z,20.80
2018-03-26T18:11:08.686Z,25.43
2018-03-26T18:13:37.802Z,21.23
2018-03-26T18:16:07.986Z,14.43
2018-03-26T18:18:37.228Z,14.40
2018-03-26T18:21:07.415Z,19.40
2018-03-26T18:23:37.092Z,26.30
2018-03-26T18:26:06.599Z,25.33
2018-03-26T18:28:36.169Z,18.13
2018-03-26T18:31:05.781Z,20.57
2018-03-26T18:33:35.406Z,41.50
2018-03-26T18:36:05.758Z,22.47
2018-03-26T18:38:45.671Z,22.20
2018-03-26T18:41:25.991Z,16.43
2018-03-26T18:43:56.054Z,29.00
2018-03-26T18:46:25.490Z,38.73
2018-03-26T18:48:56.888Z,31.43
2018-03-26T18:51:30.190Z,15.00
2018-03-26T18:53:59.390Z,23.33
2018-03-26T18:56:29.828Z,21.57
2018-03-26T18:58:59.733Z,18.37
2018-03-26T19:01:29.427Z,17.93
2018-03-26T19:04:00.535Z,16.20
2018-03-26T19:06:35.659Z,106.23
2018-03-26T19:09:15.727Z,22.43
2018-03-26T19:11:47.339Z,29.83
2018-03-26T19:14:20.168Z,25.30
2018-03-26T19:16:51.187Z,27.57
2018-03-26T19:19:21.635Z,26.13
2018-03-26T19:24:54.364Z,36.83
2018-03-26T19:27:26.848Z,71.10
2018-03-26T19:29:56.448Z,46.53
2018-03-26T19:32:25.926Z,17.73
2018-03-26T19:34:58.819Z,24.87
2018-03-26T19:37:28.995Z,28.97
2018-03-26T19:39:58.724Z,21.70
2018-03-26T19:42:30.018Z,31.10
2018-03-26T19:45:05.166Z,17.67
2018-03-26T19:47:35.136Z,31.30
2018-03-26T19:50:08.743Z,27.80
2018-03-26T19:52:54.476Z,22.87
2018-03-26T19:55:46.580Z,25.47
2018-03-26T19:58:17.637Z,27.67
2018-03-26T20:00:54.284Z,26.23
2018-03-26T20:03:28.434Z,32.10
2018-03-26T20:05:58.283Z,67.03
2018-03-26T20:08:34.921Z,35.93
2018-03-26T20:11:10.339Z,17.60
2018-03-26T20:13:55.625Z,38.90
2018-03-26T20:16:26.736Z,23.80
2018-03-26T20:19:11.600Z,30.43
2018-03-26T20:21:56.871Z,19.33
2018-03-26T20:24:28.109Z,26.30
2018-03-26T20:27:07.162Z,25.13
2018-03-26T20:29:43.683Z,23.43
2018-03-26T20:32:13.563Z,27.67
2018-03-26T20:34:51.766Z,26.80
2018-03-26T20:37:21.087Z,22.50
2018-03-26T20:39:52.094Z,24.10
2018-03-26T20:42:28.024Z,19.30
2018-03-26T20:45:00.577Z,34.13
2018-03-26T20:47:32.686Z,32.13
2018-03-26T20:52:41.019Z,23.70
2018-03-26T20:55:11.396Z,22.13
2018-03-26T20:57:55.196Z,35.73
2018-03-26T21:00:26.363Z,19.00
2018-03-26T21:02:57.198Z,27.50
2018-03-26T21:05:36.136Z,30.13
2018-03-26T21:08:08.063Z,77.53
2018-03-26T21:10:37.726Z,42.43
2018-03-26T21:13:07.818Z,26.27
2018-03-26T21:15:37.087Z,42.07
2018-03-26T21:18:06.523Z,29.70
2018-03-26T21:20:41.574Z,26.43
2018-03-26T21:23:15.439Z,21.50
2018-03-26T21:25:46.277Z,22.03
2018-03-26T21:28:16.792Z,30.63
2018-03-26T21:30:47.588Z,28.83
2018-03-26T21:33:19.096Z,37.13
2018-03-26T21:35:49.821Z,24.60
2018-03-26T21:38:19.590Z,29.90
2018-03-26T21:40:52.042Z,29.17
2018-03-26T21:43:21.574Z,61.20
2018-03-26T21:45:51.058Z,45.37
2018-03-26T21:48:22.336Z,27.80
2018-03-26T21:50:51.831Z,46.83
2018-03-26T21:53:21.138Z,39.73
2018-03-26T21:55:51.232Z,30.63
2018-03-26T21:58:21.273Z,27.03
2018-03-26T22:00:51.759Z,32.57
2018-03-26T22:03:21.911Z,39.97
2018-03-26T22:05:51.279Z,45.40
2018-03-26T22:08:25.794Z,54.53
2018-03-26T22:10:59.037Z,44.87
2018-03-26T22:13:28.742Z,37.47
2018-03-26T22:15:58.145Z,34.10
2018-03-26T22:18:27.776Z,29.00
2018-03-26T22:20:57.719Z,33.90
2018-03-26T22:23:27.094Z,39.87
2018-03-26T22:25:56.973Z,53.73
2018-03-26T22:28:26.500Z,50.60
2018-03-26T22:30:58.916Z,63.43
2018-03-26T22:33:29.362Z,50.30
2018-03-26T22:35:58.734Z,53.40
2018-03-26T22:38:27.819Z,33.20
2018-03-26T22:40:57.096Z,27.47
2018-03-26T22:43:26.423Z,65.73
2018-03-26T22:45:56.704Z,32.57
2018-03-26T22:48:25.608Z,89.37
2018-03-26T22:50:55.829Z,70.60
2018-03-26T22:53:25.409Z,44.13
2018-03-26T22:55:55.101Z,38.20
2018-03-26T22:58:27.813Z,80.63
2018-03-26T23:00:57.783Z,51.97
2018-03-26T23:03:28.023Z,55.43
2018-03-26T23:05:57.503Z,37.63
2018-03-26T23:08:27.844Z,45.20
2018-03-26T23:10:57.868Z,53.57
2018-03-26T23:13:27.787Z,42.20
2018-03-26T23:15:57.561Z,41.50
2018-03-26T23:18:26.859Z,44.73
2018-03-26T23:20:55.960Z,49.37
2018-03-26T23:23:25.473Z,57.27
2018-03-26T23:25:54.493Z,51.70
2018-03-26T23:28:23.614Z,59.10
2018-03-26T23:30:52.994Z,56.40
2018-03-26T23:33:22.011Z,39.80
2018-03-26T23:35:51.351Z,42.90
2018-03-26T23:38:20.570Z,51.23
2018-03-26T23:40:50.384Z,62.17
2018-03-26T23:43:20.332Z,42.90
2018-03-26T23:45:49.768Z,65.00
2018-03-26T23:48:19.324Z,52.87
2018-03-26T23:50:50.186Z,42.00
2018-03-26T23:53:22.362Z,50.33
2018-03-26T23:55:52.177Z,45.10
2018-03-26T23:58:21.629Z,53.67
